createdAt,value
2023-08-04T00:00:19.550Z,100677.35
2023-08-04T00:03:07.641Z,100679.46
2023-08-04T00:05:36.060Z,100675.75
2023-08-04T00:08:04.460Z,100670.79
2023-08-04T00:10:32.919Z,100667.38
2023-08-04T00:13:01.147Z,100666.84
2023-08-04T00:15:30.265Z,100667.45
2023-08-04T00:17:58.520Z,100669.35
2023-08-04T00:20:27.668Z,100672.48
2023-08-04T00:22:59.489Z,100672.57
2023-08-04T00:25:27.920Z,100679.61
2023-08-04T00:27:56.264Z,100678.26
2023-08-04T00:30:24.585Z,100676.27
2023-08-04T00:32:52.992Z,100674.05
2023-08-04T00:35:21.360Z,100674.11
2023-08-04T00:37:50.080Z,100671.63
2023-08-04T00:40:18.437Z,100677.30
2023-08-04T00:42:46.863Z,100681.41
2023-08-04T00:45:15.446Z,100683.08
2023-08-04T00:47:46.762Z,100681.94
2023-08-04T00:50:16.123Z,100679.95
2023-08-04T00:52:46.009Z,100678.81
2023-08-04T00:55:16.280Z,100679.53
2023-08-04T00:57:48.570Z,100682.25
2023-08-04T01:00:17.094Z,100679.86
2023-08-04T01:02:45.402Z,100680.54
2023-08-04T01:05:13.822Z,100684.77
2023-08-04T01:07:54.511Z,100685.28
2023-08-04T01:10:32.507Z,100689.73
2023-08-04T01:13:08.973Z,100694.50
2023-08-04T01:15:37.924Z,100696.70
2023-08-04T01:18:06.435Z,100700.76
2023-08-04T01:20:36.301Z,100698.10
2023-08-04T01:23:04.882Z,100702.35
2023-08-04T01:25:41.483Z,100700.09
2023-08-04T01:28:15.345Z,100699.73
2023-08-04T01:30:46.321Z,100697.08
2023-08-04T01:33:16.040Z,100692.10
2023-08-04T01:35:47.190Z,100698.42
2023-08-04T01:38:18.124Z,100699.48
2023-08-04T01:40:47.475Z,100698.23
2023-08-04T01:43:15.742Z,100701.77
2023-08-04T01:45:44.044Z,100696.70
2023-08-04T01:48:12.564Z,100698.51
2023-08-04T01:50:41.018Z,100697.44
2023-08-04T01:53:09.435Z,100705.92
2023-08-04T01:55:37.811Z,100709.61
2023-08-04T01:58:06.108Z,100709.38
2023-08-04T02:00:34.613Z,100710.19
2023-08-04T02:03:03.142Z,100709.66
2023-08-04T02:05:31.709Z,100707.39
2023-08-04T02:08:00.041Z,100708.29
2023-08-04T02:10:30.778Z,100714.60
2023-08-04T02:12:59.488Z,100715.59
2023-08-04T02:15:29.014Z,100717.71
2023-08-04T02:17:57.438Z,100714.89
2023-08-04T02:20:25.989Z,100713.94
2023-08-04T02:22:57.286Z,100716.98
2023-08-04T02:25:25.825Z,100716.05
2023-08-04T02:27:54.412Z,100714.66
2023-08-04T02:30:22.746Z,100712.41
2023-08-04T02:32:52.094Z,100713.77
2023-08-04T02:35:21.050Z,100714.95
2023-08-04T02:37:49.559Z,100721.77
2023-08-04T02:40:20.745Z,100721.55
2023-08-04T02:42:49.168Z,100720.95
2023-08-04T02:45:17.555Z,100726.70
2023-08-04T02:47:45.818Z,100726.57
2023-08-04T02:50:14.337Z,100726.77
2023-08-04T02:52:43.114Z,100725.65
2023-08-04T02:55:13.527Z,100729.27
2023-08-04T02:57:42.146Z,100729.73
2023-08-04T03:00:10.802Z,100730.94
2023-08-04T03:02:39.967Z,100731.61
2023-08-04T03:05:08.865Z,100731.34
2023-08-04T03:07:37.161Z,100729.17
2023-08-04T03:10:06.385Z,100726.90
2023-08-04T03:12:34.571Z,100729.27
2023-08-04T03:15:03.710Z,100727.78
2023-08-04T03:17:32.251Z,100732.71
2023-08-04T03:20:00.808Z,100739.91
2023-08-04T03:22:29.412Z,100737.66
2023-08-04T03:24:57.588Z,100742.08
2023-08-04T03:27:25.849Z,100742.30
2023-08-04T03:29:54.770Z,100744.17
2023-08-04T03:32:23.887Z,100748.86
2023-08-04T03:34:52.435Z,100750.80
2023-08-04T03:37:20.704Z,100745.25
2023-08-04T03:39:49.044Z,100746.36
2023-08-04T03:42:17.442Z,100750.26
2023-08-04T03:44:45.859Z,100751.08
2023-08-04T03:47:14.639Z,100754.15
2023-08-04T03:49:43.091Z,100754.74
2023-08-04T03:52:11.574Z,100756.58
2023-08-04T03:54:40.346Z,100757.76
2023-08-04T03:57:08.779Z,100755.02
2023-08-04T03:59:37.184Z,100758.06
2023-08-04T04:02:05.699Z,100762.30
2023-08-04T04:04:34.432Z,100761.44
2023-08-04T04:07:02.917Z,100753.17
2023-08-04T04:09:31.061Z,100751.67
2023-08-04T04:11:59.614Z,100754.53
2023-08-04T04:14:27.962Z,100754.42
2023-08-04T04:16:57.847Z,100753.71
2023-08-04T04:19:26.147Z,100754.51
2023-08-04T04:21:54.561Z,100755.36
2023-08-04T04:24:22.941Z,100757.89
2023-08-04T04:26:51.400Z,100757.23
2023-08-04T04:29:19.631Z,100758.17
2023-08-04T04:31:48.285Z,100758.05
2023-08-04T04:34:17.105Z,100757.02
2023-08-04T04:36:45.436Z,100756.04
2023-08-04T04:39:13.942Z,100757.84
2023-08-04T04:41:42.248Z,100760.20
2023-08-04T04:44:10.491Z,100763.49
2023-08-04T04:46:38.716Z,100767.13
2023-08-04T04:49:07.137Z,100769.13
2023-08-04T04:51:36.051Z,100770.67
2023-08-04T04:54:04.597Z,100772.23
2023-08-04T04:56:33.668Z,100780.68
2023-08-04T04:59:02.110Z,100784.30
2023-08-04T05:01:30.676Z,100786.45
2023-08-04T05:03:59.405Z,100788.45
2023-08-04T05:06:30.692Z,100791.79
2023-08-04T05:09:00.212Z,100787.73
2023-08-04T05:11:29.141Z,100785.53
2023-08-04T05:13:58.305Z,100784.45
2023-08-04T05:16:26.691Z,100788.80
2023-08-04T05:18:55.124Z,100788.62
2023-08-04T05:21:24.492Z,100782.48
2023-08-04T05:23:53.470Z,100782.86
2023-08-04T05:26:21.811Z,100781.63
2023-08-04T05:28:50.169Z,100781.87
2023-08-04T05:31:18.716Z,100778.92
2023-08-04T05:33:47.716Z,100776.65
2023-08-04T05:36:16.276Z,100781.17
2023-08-04T05:38:45.563Z,100778.73
2023-08-04T05:41:13.926Z,100781.88
2023-08-04T05:43:43.734Z,100779.58
2023-08-04T05:46:16.695Z,100778.27
2023-08-04T05:48:45.166Z,100781.45
2023-08-04T05:51:13.795Z,100781.76
2023-08-04T05:53:43.087Z,100779.12
2023-08-04T05:56:11.737Z,100779.63
2023-08-04T05:58:43.880Z,100780.73
2023-08-04T06:01:13.616Z,100785.27
2023-08-04T06:03:42.078Z,100790.17
2023-08-04T06:06:10.765Z,100787.73
2023-08-04T06:08:39.407Z,100787.77
2023-08-04T06:11:07.713Z,100793.05
2023-08-04T06:13:36.100Z,100798.38
2023-08-04T06:16:04.694Z,100797.11
2023-08-04T06:18:33.538Z,100799.14
2023-08-04T06:21:01.938Z,100799.89
2023-08-04T06:23:30.708Z,100801.04
2023-08-04T06:25:59.187Z,100799.71
2023-08-04T06:28:27.816Z,100798.66
2023-08-04T06:30:57.500Z,100798.41
2023-08-04T06:33:25.881Z,100802.98
2023-08-04T06:35:54.261Z,100806.34
2023-08-04T06:38:22.596Z,100805.45
2023-08-04T06:40:51.723Z,100801.20
2023-08-04T06:43:20.200Z,100802.20
2023-08-04T06:45:49.041Z,100804.98
2023-08-04T06:48:17.591Z,100807.46
2023-08-04T06:50:47.613Z,100804.45
2023-08-04T06:53:16.079Z,100808.50
2023-08-04T06:55:47.293Z,100809.83
2023-08-04T06:58:16.261Z,100805.19
2023-08-04T07:00:46.611Z,100802.38
2023-08-04T07:03:16.065Z,100796.86
2023-08-04T07:05:44.678Z,100794.73
2023-08-04T07:11:52.471Z,100797.58
2023-08-04T07:14:20.916Z,100797.90
2023-08-04T07:16:49.905Z,100800.98
2023-08-04T07:19:18.742Z,100804.80
2023-08-04T07:21:47.782Z,100803.14
2023-08-04T07:24:16.433Z,100804.20
2023-08-04T07:26:45.013Z,100803.73
2023-08-04T07:29:13.523Z,100802.69
2023-08-04T07:31:42.086Z,100804.16
2023-08-04T07:34:10.689Z,100809.45
2023-08-04T07:36:39.474Z,100806.11
2023-08-04T07:39:08.325Z,100801.09
2023-08-04T07:41:36.823Z,100801.64
2023-08-04T07:44:05.526Z,100805.86
2023-08-04T07:46:33.937Z,100807.83
2023-08-04T07:49:02.336Z,100806.45
2023-08-04T07:51:30.712Z,100807.79
2023-08-04T07:53:59.128Z,100803.89
2023-08-04T07:56:35.613Z,100803.08
2023-08-04T07:59:04.672Z,100799.11
2023-08-04T08:01:33.392Z,100800.40
2023-08-04T08:04:02.539Z,100801.02
2023-08-04T08:06:31.030Z,100798.94
2023-08-04T08:08:59.800Z,100797.30
2023-08-04T08:11:28.244Z,100794.72
2023-08-04T08:13:56.768Z,100794.56
2023-08-04T08:16:25.284Z,100797.40
2023-08-04T08:18:54.335Z,100800.60
2023-08-04T08:21:23.206Z,100806.62
2023-08-04T08:23:52.366Z,100804.62
2023-08-04T08:26:21.024Z,100803.95
2023-08-04T08:28:50.573Z,100803.32
2023-08-04T08:31:19.477Z,100801.94
2023-08-04T08:33:49.383Z,100803.64
2023-08-04T08:36:20.527Z,100802.90
2023-08-04T08:38:49.614Z,100804.07
2023-08-04T08:41:22.233Z,100806.58
2023-08-04T08:43:51.933Z,100805.77
2023-08-04T08:46:20.452Z,100803.07
2023-08-04T08:48:51.292Z,100801.76
2023-08-04T08:51:24.226Z,100800.02
2023-08-04T08:53:54.305Z,100793.84
2023-08-04T08:56:23.252Z,100792.40
2023-08-04T08:58:51.722Z,100794.40
2023-08-04T09:01:20.615Z,100792.70
2023-08-04T09:03:49.230Z,100792.39
2023-08-04T09:25:54.707Z,100782.86
2023-08-04T09:28:23.405Z,100778.48
2023-08-04T09:31:11.877Z,100778.13
2023-08-04T09:33:43.292Z,100776.09
2023-08-04T09:36:19.748Z,100768.37
2023-08-04T09:38:48.471Z,100767.64
2023-08-04T09:41:17.124Z,100764.27
2023-08-04T09:43:45.477Z,100759.77
2023-08-04T09:46:15.296Z,100759.29
2023-08-04T09:48:44.075Z,100760.46
2023-08-04T09:51:14.538Z,100759.42
2023-08-04T09:53:44.975Z,100755.69
2023-08-04T09:56:15.883Z,100752.70
2023-08-04T09:58:45.911Z,100753.32
2023-08-04T10:01:15.782Z,100756.23
2023-08-04T10:03:47.398Z,100753.95
2023-08-04T10:06:17.279Z,100753.77
2023-08-04T10:08:45.680Z,100752.29
2023-08-04T10:11:13.976Z,100754.84
2023-08-04T10:13:47.682Z,100754.42
2023-08-04T10:16:19.075Z,100755.03
2023-08-04T10:18:50.598Z,100750.36
2023-08-04T10:21:21.768Z,100743.34
2023-08-04T10:23:54.138Z,100741.17
2023-08-04T10:26:22.649Z,100746.14
2023-08-04T10:29:07.260Z,100742.30
2023-08-04T10:31:56.922Z,100743.04
2023-08-04T10:34:32.590Z,100738.68
2023-08-04T10:37:13.226Z,100735.86
2023-08-04T10:39:46.109Z,100733.08
2023-08-04T10:42:15.564Z,100736.44
2023-08-04T10:45:06.494Z,100738.99
2023-08-04T10:47:51.986Z,100738.08
2023-08-04T10:50:28.117Z,100734.44
2023-08-04T10:52:56.917Z,100724.66
2023-08-04T10:55:27.757Z,100728.19
2023-08-04T10:57:56.213Z,100729.63
2023-08-04T11:00:24.777Z,100727.63
2023-08-04T11:02:53.600Z,100729.62
2023-08-04T11:05:25.552Z,100729.52
2023-08-04T11:07:54.146Z,100728.60
2023-08-04T11:10:24.825Z,100726.59
2023-08-04T11:12:54.532Z,100719.48
2023-08-04T11:15:22.944Z,100721.70
2023-08-04T11:17:51.220Z,100719.88
2023-08-04T11:20:32.001Z,100719.21
2023-08-04T11:23:02.965Z,100716.63
2023-08-04T11:25:37.772Z,100717.89
2023-08-04T11:28:08.585Z,100715.61
2023-08-04T11:30:37.928Z,100716.80
2023-08-04T11:33:09.673Z,100715.58
2023-08-04T11:35:38.232Z,100710.55
2023-08-04T11:38:06.711Z,100713.49
2023-08-04T11:40:36.658Z,100715.99
2023-08-04T11:43:05.867Z,100719.20
2023-08-04T11:45:34.149Z,100711.75
2023-08-04T11:48:02.537Z,100707.92
2023-08-04T11:50:31.041Z,100706.39
2023-08-04T11:53:01.153Z,100708.05
2023-08-04T11:55:29.734Z,100703.92
2023-08-04T11:57:58.026Z,100704.23
2023-08-04T12:00:34.875Z,100705.73
2023-08-04T12:03:05.292Z,100703.55
2023-08-04T12:05:38.311Z,100700.29
2023-08-04T12:08:15.252Z,100702.16
2023-08-04T12:10:45.272Z,100703.58
2023-08-04T12:13:47.525Z,100697.46
2023-08-04T12:16:21.749Z,100693.19
2023-08-04T12:18:52.271Z,100692.42
2023-08-04T12:21:24.697Z,100696.96
2023-08-04T12:23:54.935Z,100696.89
2023-08-04T12:26:23.593Z,100697.77
2023-08-04T12:28:52.689Z,100698.02
2023-08-04T12:31:21.150Z,100695.32
2023-08-04T12:33:49.729Z,100693.95
2023-08-04T12:36:18.252Z,100698.55
2023-08-04T12:38:47.741Z,100695.73
2023-08-04T12:41:16.417Z,100691.91
2023-08-04T12:43:47.422Z,100690.11
2023-08-04T12:46:16.530Z,100688.41
2023-08-04T12:48:45.007Z,100680.64
2023-08-04T12:51:14.001Z,100685.14
2023-08-04T21:26:09.718Z,100899.52
2023-08-04T21:28:38.479Z,100901.57
2023-08-04T21:31:05.452Z,100899.95
2023-08-04T21:33:32.480Z,100903.55
2023-08-04T21:36:05.797Z,100903.76
2023-08-04T21:38:32.706Z,100901.98
2023-08-04T21:41:05.592Z,100897.38
2023-08-04T21:43:35.886Z,100898.21
2023-08-04T21:46:10.678Z,100898.56
2023-08-04T21:48:38.700Z,100897.55
2023-08-04T21:51:15.891Z,100893.52
2023-08-04T21:53:43.046Z,100889.69
2023-08-04T21:56:09.986Z,100887.51
2023-08-04T21:58:37.837Z,100882.95
2023-08-04T22:01:09.557Z,100881.45
2023-08-04T22:03:37.522Z,100879.11
2023-08-04T22:06:04.794Z,100879.92
2023-08-04T22:08:31.833Z,100880.59
2023-08-04T22:11:05.804Z,100881.35
2023-08-04T22:13:32.724Z,100878.86
2023-08-04T22:15:59.818Z,100881.98
2023-08-04T22:18:26.705Z,100883.90
2023-08-04T22:21:04.061Z,100878.39
2023-08-04T22:23:32.096Z,100876.27
2023-08-04T22:26:02.293Z,100875.85
2023-08-04T22:28:29.972Z,100874.61
2023-08-04T22:31:00.589Z,100879.29
2023-08-04T22:33:30.590Z,100881.49
2023-08-04T22:35:57.841Z,100879.61
2023-08-04T22:38:24.648Z,100879.17
2023-08-04T22:40:51.469Z,100880.23
2023-08-04T22:43:18.304Z,100881.23
2023-08-04T22:45:46.146Z,100885.61
2023-08-04T22:48:13.705Z,100887.58
2023-08-04T22:50:40.733Z,100888.52
2023-08-04T22:53:07.711Z,100891.73
2023-08-04T22:55:38.854Z,100894.46
2023-08-04T22:58:05.985Z,100894.00
2023-08-04T23:00:33.084Z,100891.84
2023-08-04T23:02:59.983Z,100893.47
2023-08-04T23:05:33.121Z,100894.30
2023-08-04T23:08:00.217Z,100889.93
2023-08-04T23:10:27.244Z,100888.55
2023-08-04T23:12:54.206Z,100888.95
2023-08-04T23:15:21.414Z,100889.93
2023-08-04T23:17:48.481Z,100889.92
2023-08-04T23:20:15.560Z,100888.43
2023-08-04T23:22:44.853Z,100888.05
2023-08-04T23:25:11.949Z,100884.02
2023-08-04T23:27:38.890Z,100881.91
2023-08-04T23:30:06.542Z,100880.66
2023-08-04T23:32:34.092Z,100877.92
2023-08-04T23:35:01.191Z,100875.77
2023-08-04T23:37:28.182Z,100874.89
2023-08-04T23:39:55.258Z,100872.41
2023-08-04T23:42:22.364Z,100869.74
2023-08-04T23:44:49.285Z,100872.37
2023-08-04T23:47:17.639Z,100871.75
2023-08-04T23:49:44.611Z,100871.85
2023-08-04T23:52:11.519Z,100866.00
2023-08-04T23:54:38.597Z,100861.98
2023-08-04T23:57:05.927Z,100862.55
2023-08-04T23:59:32.948Z,100860.09
